createdAt,value
2023-03-06T00:00:01.979Z,999.4925703198357
2023-03-06T00:15:02.378Z,999.2633701677473
2023-03-06T00:30:02.277Z,999.1257469465827
2023-03-06T00:45:01.913Z,999.0709548628544
2023-03-06T01:00:02.639Z,998.9886542033038
2023-03-06T01:15:02.280Z,998.8894867294231
2023-03-06T01:30:02.022Z,998.6877393130208
2023-03-06T01:45:01.682Z,998.4565311587695
2023-03-06T02:00:02.384Z,998.2787359079316
2023-03-06T02:15:02.044Z,998.0380038138583
2023-03-06T02:30:01.757Z,997.9626551471364
2023-03-06T02:45:02.432Z,997.7901045466081
2023-03-06T03:00:02.115Z,997.6742151535925
2023-03-06T03:15:01.772Z,997.6300656226892
2023-03-06T03:30:02.540Z,997.5472023440874
2023-03-06T03:45:02.243Z,997.3663759286516
2023-03-06T04:00:01.948Z,997.2587459740793
2023-03-06T04:15:01.605Z,997.0987644772555
2023-03-06T04:30:02.304Z,996.943755259821
2023-03-06T04:45:01.971Z,996.7717650207104
2023-03-06T05:00:01.693Z,996.7197906207107
2023-03-06T05:15:02.346Z,996.5927404132615
2023-03-06T05:30:02.567Z,996.5415463036636
2023-03-06T05:45:02.211Z,996.4632187774394
2023-03-06T06:00:01.919Z,996.3915501756035
2023-03-06T06:15:01.658Z,996.3163715419207
2023-03-06T06:30:02.421Z,996.3308561562245
2023-03-06T06:45:02.115Z,996.3448228885641
2023-03-06T07:00:01.993Z,996.2908527147199
2023-03-06T07:15:01.723Z,996.334988117281
2023-03-06T07:30:01.635Z,996.4882025981136
2023-03-06T07:45:02.332Z,996.4409261613456
2023-03-06T08:00:02.025Z,996.4647554240843
2023-03-06T08:15:01.726Z,996.6815918494879
2023-03-06T08:30:02.499Z,996.8043965616092
2023-03-06T08:45:02.160Z,996.8758383811213
2023-03-06T09:00:01.852Z,996.9480372884412
2023-03-06T09:15:02.607Z,996.9082386186036
2023-03-06T09:30:02.303Z,996.9819066792429
2023-03-06T09:45:01.962Z,997.0301036960049
2023-03-06T10:00:04.328Z,996.9672420585124
2023-03-06T10:15:02.304Z,997.0853366008743
2023-03-06T10:30:03.902Z,997.0428389272602
2023-03-06T10:45:01.905Z,996.972605275741
2023-03-06T11:00:01.667Z,997.0522770069796
2023-03-06T11:15:02.429Z,997.1421205182696
2023-03-06T11:30:02.147Z,997.1209914833794
2023-03-06T11:45:03.076Z,996.9349276587981
2023-03-06T12:00:01.992Z,996.9194348450582
2023-03-06T12:15:01.813Z,996.7958664183965
2023-03-06T12:30:02.557Z,996.7776090820267
2023-03-06T12:45:02.275Z,996.6265033186341
2023-03-06T13:00:01.948Z,996.3964069067373
2023-03-06T13:15:01.632Z,996.3367174139308
2023-03-06T13:30:02.356Z,996.2876649436429
2023-03-06T13:45:02.077Z,996.1128761854224
2023-03-06T14:00:09.261Z,995.885180511745
2023-03-06T14:15:02.548Z,995.8591412476011
2023-03-06T14:30:02.302Z,995.7098428693591
2023-03-06T14:45:01.926Z,995.658749434926
2023-03-06T15:00:01.623Z,995.4418809142552
2023-03-06T15:15:02.295Z,995.3318287523734
2023-03-06T15:30:02.048Z,995.3233997455484
2023-03-06T15:45:01.792Z,995.2046145261248
2023-03-06T16:00:02.479Z,995.1229988426867
2023-03-06T16:15:02.108Z,994.8764253152009
2023-03-06T16:30:01.820Z,994.7547810178622
2023-03-06T16:45:02.499Z,994.6682845030431
2023-03-06T17:00:02.260Z,994.594141756569
2023-03-06T17:15:01.988Z,994.5040133392635
2023-03-06T17:30:01.757Z,994.4019100529894
2023-03-06T17:45:02.427Z,994.2842739418179
2023-03-06T18:00:02.073Z,994.2231831771616
2023-03-06T18:15:01.752Z,994.116640294274
2023-03-06T18:30:02.534Z,994.0277032694478
2023-03-06T18:45:02.196Z,993.8540378818396
2023-03-06T19:00:01.876Z,993.7352537063884
2023-03-06T19:15:02.589Z,993.5901634792971
2023-03-06T19:30:02.263Z,993.4658751668566
2023-03-06T19:45:01.965Z,993.2956374020011
2023-03-06T20:00:01.674Z,993.1361117979825
2023-03-06T20:15:02.351Z,992.7157934154743
2023-03-06T20:30:02.043Z,992.4761555263295
2023-03-06T20:45:01.731Z,992.2086601906492
2023-03-06T21:00:02.397Z,991.8962868097365
2023-03-06T21:15:02.042Z,991.5705688655237
2023-03-06T21:30:01.833Z,991.2525973968654
2023-03-06T21:45:02.509Z,990.8180727644348
2023-03-06T22:00:02.193Z,990.7261920423354
2023-03-06T22:15:01.878Z,990.4171532531192
2023-03-06T22:30:02.557Z,990.1690937901004
2023-03-06T22:45:02.171Z,989.7164819684228
2023-03-06T23:00:01.852Z,989.5991730102166
2023-03-06T23:15:02.531Z,989.3609260958074
2023-03-06T23:30:02.240Z,989.162645386454
2023-03-06T23:45:01.946Z,988.9148787118927
